Time;durP1;ratioP1;P1;durP2;ratioP2;P2;SDS_P1;SDS_P2;PMS_P1;PMS_P2;Temp;Humidity;BMP_temperature;BMP_pressure;BME280_temperature;BME280_humidity;BME280_pressure;Samples;Min_cycle;Max_cycle;Signal;HPM_P1;HPM_P2
2021/11/14 00:01:08;;;;;;;;;;;8.70;99.90;;;;;;5098611;28;20259;-75
2021/11/14 00:03:35;;;;;;;;;;;8.70;99.90;;;;;;5098356;28;20272;-76
2021/11/14 00:06:02;;;;;;;;;;;8.70;99.90;;;;;;5097910;28;19934;-76
2021/11/14 00:08:29;;;;;;;;;;;8.70;99.90;;;;;;5097953;28;20271;-76
2021/11/14 00:11:00;;;;;;;;;;;8.70;99.90;;;;;;5097778;28;19925;-76
2021/11/14 00:13:27;;;;;;;;;;;8.70;99.90;;;;;;5098151;28;19967;-79
2021/11/14 00:15:54;;;;;;;;;;;8.70;99.90;;;;;;5098343;28;19942;-77
2021/11/14 00:18:21;;;;;;;;;;;8.70;99.90;;;;;;5098260;28;19924;-76
2021/11/14 00:20:48;;;;;;;;;;;8.70;99.90;;;;;;5097593;28;19924;-76
2021/11/14 00:23:15;;;;;;;;;;;8.70;99.90;;;;;;5097622;28;20699;-76
2021/11/14 00:25:42;;;;;;;;;;;8.70;99.90;;;;;;5097880;28;19935;-76
2021/11/14 00:28:10;;;;;;;;;;;8.80;99.90;;;;;;5097655;28;19924;-76
2021/11/14 00:30:37;;;;;;;;;;;8.80;99.90;;;;;;5097140;28;19934;-76
2021/11/14 00:33:04;;;;;;;;;;;8.80;99.90;;;;;;5097181;28;20341;-76
2021/11/14 00:35:31;;;;;;;;;;;8.80;99.90;;;;;;5097231;28;19932;-77
2021/11/14 00:37:58;;;;;;;;;;;8.80;99.90;;;;;;5100250;28;19924;-77
2021/11/14 00:40:26;;;;;;;;;;;8.80;99.90;;;;;;5098758;28;19928;-79
2021/11/14 00:42:53;;;;;;;;;;;8.80;99.90;;;;;;5097241;28;19935;-76
2021/11/14 00:45:21;;;;;;;;;;;8.80;99.90;;;;;;5097226;28;19924;-76
2021/11/14 00:47:48;;;;;;;;;;;8.80;99.90;;;;;;5097208;28;19939;-76
2021/11/14 00:50:15;;;;;;;;;;;8.80;99.90;;;;;;5097281;28;19928;-81
2021/11/14 00:52:43;;;;;;;;;;;8.80;99.90;;;;;;5097287;28;20402;-76
2021/11/14 00:55:10;;;;;;;;;;;8.80;99.90;;;;;;5096982;28;19934;-76
2021/11/14 00:57:36;;;;;;;;;;;8.80;99.90;;;;;;5097057;28;19924;-76
2021/11/14 01:00:06;;;;;;;;;;;8.80;99.90;;;;;;5096873;28;19935;-76
2021/11/14 01:02:34;;;;;;;;;;;8.80;99.90;;;;;;5096946;28;19924;-77
2021/11/14 01:05:01;;;;;;;;;;;8.80;99.90;;;;;;5096769;28;19924;-77
2021/11/14 01:07:28;;;;;;;;;;;8.80;99.90;;;;;;5096484;28;19924;-77
2021/11/14 01:09:55;;;;;;;;;;;8.70;99.90;;;;;;5096601;28;19934;-76
2021/11/14 01:12:22;;;;;;;;;;;8.80;99.90;;;;;;5096782;28;19932;-76
2021/11/14 01:14:48;;;;;;;;;;;8.80;99.90;;;;;;5096695;28;20335;-77
2021/11/14 01:17:16;;;;;;;;;;;8.80;99.90;;;;;;5097084;28;19928;-76
2021/11/14 01:19:44;;;;;;;;;;;8.80;99.90;;;;;;5096531;28;19924;-76
2021/11/14 01:22:11;;;;;;;;;;;8.80;99.90;;;;;;5096397;28;19931;-76
2021/11/14 01:24:38;;;;;;;;;;;8.80;99.90;;;;;;5096782;28;19930;-76
2021/11/14 01:27:05;;;;;;;;;;;8.80;99.90;;;;;;5096432;28;19924;-76
2021/11/14 01:29:32;;;;;;;;;;;8.80;99.90;;;;;;5096544;28;19935;-76
2021/11/14 01:31:59;;;;;;;;;;;8.70;99.90;;;;;;5096312;28;19924;-76
2021/11/14 01:34:26;;;;;;;;;;;8.70;99.90;;;;;;5096461;28;19928;-76
2021/11/14 01:36:54;;;;;;;;;;;8.70;99.90;;;;;;5096404;28;20344;-76
2021/11/14 01:39:21;;;;;;;;;;;8.70;99.90;;;;;;5096276;28;19924;-76
2021/11/14 01:41:48;;;;;;;;;;;8.70;99.90;;;;;;5096209;28;19924;-76
2021/11/14 01:44:15;;;;;;;;;;;8.60;99.90;;;;;;5096020;28;19935;-76
2021/11/14 01:46:42;;;;;;;;;;;8.60;99.90;;;;;;5096340;28;20340;-76
2021/11/14 01:49:09;;;;;;;;;;;8.70;99.90;;;;;;5096074;28;19967;-76
2021/11/14 01:51:36;;;;;;;;;;;8.70;99.90;;;;;;5096147;28;19950;-76
2021/11/14 01:54:04;;;;;;;;;;;8.70;99.90;;;;;;5095990;28;19924;-76
2021/11/14 01:56:31;;;;;;;;;;;8.60;99.90;;;;;;5096012;28;19934;-76
2021/11/14 01:58:58;;;;;;;;;;;8.70;99.90;;;;;;5095991;28;19936;-76
2021/11/14 02:01:25;;;;;;;;;;;8.70;99.90;;;;;;5095695;28;19938;-76
2021/11/14 02:03:53;;;;;;;;;;;8.60;99.90;;;;;;5095743;28;19928;-76
2021/11/14 02:06:20;;;;;;;;;;;8.60;99.90;;;;;;5095852;28;19924;-76
2021/11/14 02:08:46;;;;;;;;;;;8.50;99.90;;;;;;5095994;28;19924;-76
2021/11/14 02:11:16;;;;;;;;;;;8.50;99.90;;;;;;5095688;28;20033;-76
2021/11/14 02:13:43;;;;;;;;;;;8.40;99.90;;;;;;5095567;28;19932;-76
2021/11/14 02:16:09;;;;;;;;;;;8.40;99.90;;;;;;5095734;28;19934;-76
2021/11/14 02:18:36;;;;;;;;;;;8.30;99.90;;;;;;5095344;28;19924;-76
2021/11/14 02:21:04;;;;;;;;;;;8.30;99.90;;;;;;5095434;28;20257;-77
2021/11/14 02:23:31;;;;;;;;;;;8.20;99.90;;;;;;5096041;28;19924;-77
2021/11/14 02:25:58;;;;;;;;;;;8.10;99.90;;;;;;5096660;28;19924;-79
2021/11/14 02:28:25;;;;;;;;;;;8.10;99.90;;;;;;5095410;28;19938;-76
2021/11/14 02:30:52;;;;;;;;;;;8.10;99.90;;;;;;5095227;28;20271;-76
2021/11/14 02:33:19;;;;;;;;;;;8.00;99.90;;;;;;5094823;28;20257;-76
2021/11/14 02:35:47;;;;;;;;;;;7.90;99.90;;;;;;5094680;28;19924;-76
2021/11/14 02:38:16;;;;;;;;;;;7.90;99.90;;;;;;5095050;28;19924;-76
2021/11/14 02:40:43;;;;;;;;;;;7.80;99.90;;;;;;5094742;28;19931;-76
2021/11/14 02:43:10;;;;;;;;;;;7.70;99.90;;;;;;5092118;28;19924;-76
2021/11/14 02:45:37;;;;;;;;;;;7.70;99.90;;;;;;5094884;28;19934;-76
2021/11/14 02:48:04;;;;;;;;;;;7.70;99.90;;;;;;5095470;28;19935;-76
2021/11/14 02:50:31;;;;;;;;;;;7.60;99.90;;;;;;5095405;28;20336;-76
2021/11/14 02:52:58;;;;;;;;;;;7.60;99.90;;;;;;5095308;28;19924;-76
2021/11/14 02:55:26;;;;;;;;;;;7.50;99.90;;;;;;5094746;28;19935;-76
2021/11/14 02:57:53;;;;;;;;;;;7.50;99.90;;;;;;5095193;28;19924;-76
2021/11/14 03:00:21;;;;;;;;;;;7.50;99.90;;;;;;5094954;28;19932;-76
2021/11/14 03:02:48;;;;;;;;;;;7.40;99.90;;;;;;5092177;28;20351;-76
2021/11/14 03:05:16;;;;;;;;;;;7.40;99.90;;;;;;5094380;28;19925;-77
2021/11/14 03:07:43;;;;;;;;;;;7.40;99.90;;;;;;5094646;28;20363;-76
2021/11/14 03:10:11;;;;;;;;;;;7.30;99.90;;;;;;5094671;28;19924;-76
2021/11/14 03:12:39;;;;;;;;;;;7.30;99.90;;;;;;5094872;28;19934;-76
2021/11/14 03:15:06;;;;;;;;;;;7.20;99.90;;;;;;5091944;28;19938;-76
2021/11/14 03:17:34;;;;;;;;;;;7.20;99.90;;;;;;5094514;28;19934;-76
2021/11/14 03:20:01;;;;;;;;;;;7.10;99.90;;;;;;5094850;28;19924;-76
2021/11/14 03:22:27;;;;;;;;;;;7.00;99.90;;;;;;5091884;28;20240;-77
2021/11/14 03:24:54;;;;;;;;;;;7.00;99.90;;;;;;5094505;28;19934;-77
2021/11/14 03:27:22;;;;;;;;;;;7.00;99.90;;;;;;5094817;28;19935;-76
2021/11/14 03:29:50;;;;;;;;;;;7.00;99.90;;;;;;5094808;28;19924;-77
2021/11/14 03:32:17;;;;;;;;;;;7.00;99.90;;;;;;5098438;28;19924;-77
2021/11/14 03:34:45;;;;;;;;;;;6.90;99.90;;;;;;5098687;28;19931;-77
2021/11/14 03:37:12;;;;;;;;;;;6.90;99.90;;;;;;5098373;28;20233;-77
2021/11/14 03:39:39;;;;;;;;;;;6.90;99.90;;;;;;5098015;28;19924;-77
2021/11/14 03:42:06;;;;;;;;;;;6.90;99.90;;;;;;5097969;28;20337;-77
2021/11/14 03:44:33;;;;;;;;;;;6.80;99.90;;;;;;5098245;28;19924;-77
2021/11/14 03:47:01;;;;;;;;;;;6.80;99.90;;;;;;5098333;28;19924;-77
2021/11/14 03:49:28;;;;;;;;;;;6.70;99.90;;;;;;5098343;28;19923;-77
2021/11/14 03:51:56;;;;;;;;;;;6.70;99.90;;;;;;5098457;28;19935;-77
2021/11/14 03:54:23;;;;;;;;;;;6.70;99.90;;;;;;5098083;28;19924;-76
2021/11/14 03:56:50;;;;;;;;;;;6.60;99.90;;;;;;5097890;28;19924;-76
2021/11/14 03:59:16;;;;;;;;;;;6.60;99.90;;;;;;5097799;28;19989;-76
2021/11/14 04:01:43;;;;;;;;;;;6.60;99.90;;;;;;5095047;28;19931;-77
2021/11/14 04:04:12;;;;;;;;;;;6.60;99.90;;;;;;5097685;28;19963;-76
2021/11/14 04:06:39;;;;;;;;;;;6.50;99.90;;;;;;5097416;28;19924;-76
2021/11/14 04:09:05;;;;;;;;;;;6.50;99.90;;;;;;5097745;28;19924;-76
2021/11/14 04:11:32;;;;;;;;;;;6.40;99.90;;;;;;5095095;28;19961;-77
2021/11/14 04:13:59;;;;;;;;;;;6.40;99.90;;;;;;5097677;28;19935;-77
2021/11/14 04:16:26;;;;;;;;;;;6.40;99.90;;;;;;5097269;28;20527;-77
2021/11/14 04:18:53;;;;;;;;;;;6.40;99.90;;;;;;5097329;28;20250;-76
2021/11/14 04:21:21;;;;;;;;;;;6.40;99.90;;;;;;5097225;28;19924;-76
2021/11/14 04:23:51;;;;;;;;;;;6.50;99.90;;;;;;5097137;28;20022;-76
2021/11/14 04:26:18;;;;;;;;;;;6.50;99.90;;;;;;5097143;28;19973;-76
2021/11/14 04:28:45;;;;;;;;;;;6.50;99.90;;;;;;5097320;28;19931;-76
2021/11/14 04:31:12;;;;;;;;;;;6.50;99.90;;;;;;5097211;28;19924;-76
2021/11/14 04:33:38;;;;;;;;;;;6.50;99.90;;;;;;5097521;28;19924;-76
2021/11/14 04:36:05;;;;;;;;;;;6.50;99.90;;;;;;5097528;28;20336;-76
2021/11/14 04:38:35;;;;;;;;;;;6.40;99.90;;;;;;5097332;28;19924;-76
2021/11/14 04:41:02;;;;;;;;;;;6.30;99.90;;;;;;5097212;28;19924;-76
2021/11/14 04:43:29;;;;;;;;;;;6.30;99.90;;;;;;5097356;28;19924;-76
2021/11/14 04:45:56;;;;;;;;;;;6.20;99.90;;;;;;5097551;28;19924;-76
2021/11/14 04:48:24;;;;;;;;;;;6.20;99.90;;;;;;5097465;28;19939;-76
2021/11/14 04:50:50;;;;;;;;;;;6.20;99.90;;;;;;5096795;28;19930;-76
2021/11/14 04:53:17;;;;;;;;;;;6.20;99.90;;;;;;5096428;28;19928;-76
2021/11/14 04:55:45;;;;;;;;;;;6.20;99.90;;;;;;5097229;28;19934;-76
2021/11/14 04:58:13;;;;;;;;;;;6.20;99.90;;;;;;5096985;28;19930;-76
2021/11/14 05:00:40;;;;;;;;;;;6.10;99.90;;;;;;5097027;28;20409;-77
2021/11/14 05:03:07;;;;;;;;;;;6.10;99.90;;;;;;5096754;28;19946;-77
2021/11/14 05:05:36;;;;;;;;;;;6.10;99.90;;;;;;5098114;28;19924;-76
2021/11/14 05:08:04;;;;;;;;;;;6.00;99.90;;;;;;5097138;28;19924;-79
2021/11/14 05:10:31;;;;;;;;;;;5.90;99.90;;;;;;5096876;28;19924;-77
2021/11/14 05:13:00;;;;;;;;;;;5.90;99.90;;;;;;5096771;28;19924;-77
2021/11/14 05:15:26;;;;;;;;;;;5.90;99.90;;;;;;5096831;28;20693;-77
2021/11/14 05:17:53;;;;;;;;;;;5.80;99.90;;;;;;5096688;28;19930;-77
2021/11/14 05:20:20;;;;;;;;;;;5.80;99.90;;;;;;5096544;28;19924;-77
2021/11/14 05:22:47;;;;;;;;;;;5.80;99.90;;;;;;5096526;28;19934;-77
2021/11/14 05:25:14;;;;;;;;;;;5.80;99.90;;;;;;5096648;28;19924;-77
2021/11/14 05:27:41;;;;;;;;;;;5.80;99.90;;;;;;5096721;28;19924;-77
2021/11/14 05:30:10;;;;;;;;;;;5.80;99.90;;;;;;5096457;28;20352;-77
2021/11/14 05:32:36;;;;;;;;;;;5.70;99.90;;;;;;5096203;28;19935;-77
2021/11/14 05:35:03;;;;;;;;;;;5.70;99.90;;;;;;5096272;28;19931;-77
2021/11/14 05:37:30;;;;;;;;;;;5.70;99.90;;;;;;5096454;28;19935;-77
2021/11/14 05:39:57;;;;;;;;;;;5.70;99.90;;;;;;5096407;28;20259;-77
2021/11/14 05:42:24;;;;;;;;;;;5.60;99.90;;;;;;5096110;28;19924;-77
2021/11/14 05:44:51;;;;;;;;;;;5.70;99.90;;;;;;5096166;28;20364;-77
2021/11/14 05:47:19;;;;;;;;;;;5.70;99.90;;;;;;5096440;28;19938;-77
2021/11/14 05:49:46;;;;;;;;;;;5.70;99.90;;;;;;5096232;28;19950;-77
2021/11/14 05:52:13;;;;;;;;;;;5.70;99.90;;;;;;5095975;28;20372;-77
2021/11/14 05:54:40;;;;;;;;;;;5.70;99.90;;;;;;5095113;28;19925;-77
2021/11/14 05:57:06;;;;;;;;;;;5.70;99.90;;;;;;5095557;28;19935;-77
2021/11/14 05:59:40;;;;;;;;;;;5.70;99.90;;;;;;5095243;28;19995;-77
2021/11/14 06:02:10;;;;;;;;;;;5.70;99.90;;;;;;5095406;28;20291;-77
2021/11/14 06:04:49;;;;;;;;;;;5.70;99.90;;;;;;5095911;28;19934;-77
2021/11/14 06:07:16;;;;;;;;;;;5.70;99.90;;;;;;5095472;28;19932;-77
2021/11/14 06:09:43;;;;;;;;;;;5.60;99.90;;;;;;5095711;28;20367;-77
2021/11/14 06:12:10;;;;;;;;;;;5.60;99.90;;;;;;5095596;28;19930;-77
2021/11/14 06:14:37;;;;;;;;;;;5.60;99.90;;;;;;5095848;28;20005;-77
2021/11/14 06:17:04;;;;;;;;;;;5.60;99.90;;;;;;5095867;28;20371;-77
2021/11/14 06:19:30;;;;;;;;;;;5.60;99.90;;;;;;5093472;28;20010;-77
2021/11/14 06:21:59;;;;;;;;;;;5.60;99.90;;;;;;5095713;28;19924;-77
2021/11/14 06:24:26;;;;;;;;;;;5.60;99.90;;;;;;5095221;28;19924;-77
2021/11/14 06:26:53;;;;;;;;;;;5.60;99.90;;;;;;5095396;28;19931;-77
2021/11/14 06:29:20;;;;;;;;;;;5.50;99.90;;;;;;5095380;28;20234;-77
2021/11/14 06:31:47;;;;;;;;;;;5.50;99.90;;;;;;5094899;28;19950;-77
2021/11/14 06:34:13;;;;;;;;;;;5.40;99.90;;;;;;5095204;28;19923;-77
2021/11/14 06:36:40;;;;;;;;;;;5.40;99.90;;;;;;5095492;28;19924;-77
2021/11/14 06:39:08;;;;;;;;;;;5.40;99.90;;;;;;5095138;28;20233;-77
2021/11/14 06:41:35;;;;;;;;;;;5.30;99.90;;;;;;5094927;28;19924;-77
2021/11/14 06:44:02;;;;;;;;;;;5.30;99.90;;;;;;5095021;28;19924;-77
2021/11/14 06:46:29;;;;;;;;;;;5.30;99.90;;;;;;5094843;28;19928;-77
2021/11/14 06:48:56;;;;;;;;;;;5.40;99.90;;;;;;5092091;28;20348;-77
2021/11/14 06:51:22;;;;;;;;;;;5.40;99.90;;;;;;5094802;28;19934;-77
2021/11/14 06:53:49;;;;;;;;;;;5.30;99.90;;;;;;5094764;28;19939;-76
2021/11/14 06:56:18;;;;;;;;;;;5.30;99.90;;;;;;5091877;28;19924;-77
2021/11/14 06:58:44;;;;;;;;;;;5.30;99.90;;;;;;5094648;28;19924;-77
2021/11/14 07:01:11;;;;;;;;;;;5.30;99.90;;;;;;5094605;28;19932;-77
2021/11/14 07:03:41;;;;;;;;;;;5.20;99.90;;;;;;5094738;28;19924;-77
2021/11/14 07:06:08;;;;;;;;;;;5.20;99.90;;;;;;5098701;28;19978;-77
2021/11/14 07:08:35;;;;;;;;;;;5.20;99.90;;;;;;5099390;28;20302;-77
2021/11/14 07:11:02;;;;;;;;;;;5.10;99.90;;;;;;5099123;28;19928;-77
2021/11/14 07:13:31;;;;;;;;;;;5.10;99.90;;;;;;5099097;28;19924;-77
2021/11/14 07:15:58;;;;;;;;;;;5.20;99.90;;;;;;5099252;28;19930;-77
2021/11/14 07:18:25;;;;;;;;;;;5.10;99.90;;;;;;5099154;28;19924;-77
2021/11/14 07:20:52;;;;;;;;;;;5.00;99.90;;;;;;5098799;28;19935;-77
2021/11/14 07:23:18;;;;;;;;;;;5.00;99.90;;;;;;5098586;28;20341;-77
2021/11/14 07:25:45;;;;;;;;;;;5.00;99.90;;;;;;5098771;28;19925;-77
2021/11/14 07:28:12;;;;;;;;;;;5.00;99.90;;;;;;5098769;28;19928;-77
2021/11/14 07:30:41;;;;;;;;;;;4.90;99.90;;;;;;5098582;28;19924;-77
2021/11/14 07:33:08;;;;;;;;;;;4.90;99.90;;;;;;5098555;28;19924;-77
2021/11/14 07:35:35;;;;;;;;;;;5.00;99.90;;;;;;5098610;28;19924;-77
2021/11/14 07:38:03;;;;;;;;;;;4.90;99.90;;;;;;5098461;28;19925;-77
2021/11/14 07:40:29;;;;;;;;;;;4.90;99.90;;;;;;5098016;28;19924;-76
2021/11/14 07:42:56;;;;;;;;;;;4.90;99.90;;;;;;5098331;28;20362;-77
2021/11/14 07:45:24;;;;;;;;;;;4.90;99.90;;;;;;5098480;28;20251;-77
2021/11/14 07:47:52;;;;;;;;;;;5.00;99.90;;;;;;5098457;28;19928;-77
2021/11/14 07:50:19;;;;;;;;;;;5.00;99.90;;;;;;5098392;28;19924;-77
2021/11/14 07:52:46;;;;;;;;;;;5.00;99.90;;;;;;5098286;28;19936;-77
2021/11/14 07:55:13;;;;;;;;;;;5.00;99.90;;;;;;5098595;28;19924;-77
2021/11/14 07:57:43;;;;;;;;;;;5.00;99.90;;;;;;5098148;28;20288;-77
2021/11/14 08:00:10;;;;;;;;;;;5.10;99.90;;;;;;5098229;28;20323;-77
2021/11/14 08:02:37;;;;;;;;;;;5.10;99.90;;;;;;5098070;28;19932;-77
2021/11/14 08:05:06;;;;;;;;;;;5.10;99.90;;;;;;5098139;28;19974;-77
2021/11/14 08:07:33;;;;;;;;;;;5.10;99.90;;;;;;5098229;28;19935;-77
2021/11/14 08:10:00;;;;;;;;;;;5.10;99.90;;;;;;5098213;28;19924;-77
2021/11/14 08:12:26;;;;;;;;;;;5.10;99.90;;;;;;5098012;28;20333;-77
2021/11/14 08:14:53;;;;;;;;;;;5.10;99.90;;;;;;5098016;28;19924;-77
2021/11/14 08:17:20;;;;;;;;;;;5.10;99.90;;;;;;5097017;28;19928;-77
2021/11/14 08:19:47;;;;;;;;;;;5.00;99.90;;;;;;5097767;28;19935;-77
2021/11/14 08:22:16;;;;;;;;;;;5.00;99.90;;;;;;5097673;28;20248;-77
2021/11/14 08:24:42;;;;;;;;;;;5.00;99.90;;;;;;5097656;28;19924;-77
2021/11/14 08:27:09;;;;;;;;;;;5.00;99.90;;;;;;5097780;28;19923;-77
2021/11/14 08:29:36;;;;;;;;;;;5.00;99.90;;;;;;5097640;28;20263;-77
2021/11/14 08:32:03;;;;;;;;;;;5.00;99.90;;;;;;5097469;28;19938;-77
2021/11/14 08:34:30;;;;;;;;;;;5.00;99.90;;;;;;5097595;28;19928;-77
2021/11/14 08:36:57;;;;;;;;;;;5.10;99.90;;;;;;5097708;28;19930;-77
2021/11/14 08:39:25;;;;;;;;;;;5.10;99.90;;;;;;5097539;28;19924;-77
2021/11/14 08:41:52;;;;;;;;;;;5.20;99.90;;;;;;5097476;28;19928;-77
2021/11/14 08:44:19;;;;;;;;;;;5.20;99.90;;;;;;5097403;28;19924;-77
2021/11/14 08:46:45;;;;;;;;;;;5.20;99.90;;;;;;5097553;28;19924;-77
2021/11/14 08:49:12;;;;;;;;;;;5.20;99.90;;;;;;5097170;28;20360;-77
2021/11/14 08:51:39;;;;;;;;;;;5.30;99.90;;;;;;5097212;28;19924;-77
2021/11/14 08:54:06;;;;;;;;;;;5.30;99.90;;;;;;5097373;28;19924;-77
2021/11/14 08:56:36;;;;;;;;;;;5.30;99.90;;;;;;5097299;28;20031;-77
2021/11/14 08:59:03;;;;;;;;;;;5.30;99.90;;;;;;5096991;28;20264;-77
2021/11/14 09:01:30;;;;;;;;;;;5.30;99.90;;;;;;5096936;28;20040;-77
2021/11/14 09:03:57;;;;;;;;;;;5.40;99.90;;;;;;5097181;28;19924;-77
2021/11/14 09:06:24;;;;;;;;;;;5.40;99.90;;;;;;5097039;28;20348;-77
2021/11/14 09:08:51;;;;;;;;;;;5.40;99.90;;;;;;5096748;28;19938;-77
2021/11/14 09:11:18;;;;;;;;;;;5.50;99.90;;;;;;5096834;28;19924;-77
2021/11/14 09:13:46;;;;;;;;;;;5.50;99.90;;;;;;5096745;28;20356;-77
2021/11/14 09:16:13;;;;;;;;;;;5.50;99.90;;;;;;5096827;28;19924;-77
2021/11/14 09:18:39;;;;;;;;;;;5.60;99.90;;;;;;5096927;28;19924;-77
2021/11/14 09:21:06;;;;;;;;;;;5.70;99.90;;;;;;5096558;28;20390;-77
2021/11/14 09:23:33;;;;;;;;;;;5.70;99.90;;;;;;5096443;28;19924;-77
2021/11/14 09:26:00;;;;;;;;;;;5.80;99.90;;;;;;5096525;28;20260;-77
2021/11/14 09:28:27;;;;;;;;;;;5.90;99.90;;;;;;5096453;28;20023;-77
2021/11/14 09:30:55;;;;;;;;;;;6.00;99.90;;;;;;5096345;28;19924;-77
2021/11/14 09:33:23;;;;;;;;;;;6.10;99.90;;;;;;5096544;28;20044;-77
2021/11/14 09:35:50;;;;;;;;;;;6.20;99.90;;;;;;5096493;28;20255;-77
2021/11/14 09:38:17;;;;;;;;;;;6.30;99.90;;;;;;5096276;28;19930;-77
2021/11/14 09:40:44;;;;;;;;;;;6.50;99.90;;;;;;5096155;28;20356;-77
2021/11/14 09:43:12;;;;;;;;;;;6.60;99.90;;;;;;5096000;28;19924;-77
2021/11/14 09:45:39;;;;;;;;;;;6.70;99.90;;;;;;5096052;28;20060;-77
2021/11/14 09:48:07;;;;;;;;;;;6.80;99.90;;;;;;5096125;28;19924;-77
2021/11/14 09:50:34;;;;;;;;;;;6.80;99.90;;;;;;5096230;28;19935;-77
2021/11/14 09:53:01;;;;;;;;;;;6.80;99.90;;;;;;5096108;28;20360;-77
2021/11/14 09:55:34;;;;;;;;;;;6.80;99.90;;;;;;5096059;28;19924;-77
2021/11/14 09:58:01;;;;;;;;;;;6.80;99.90;;;;;;5095931;28;19935;-77
2021/11/14 10:00:28;;;;;;;;;;;7.60;99.90;;;;;;5096081;28;19936;-77
2021/11/14 10:02:55;;;;;;;;;;;6.80;99.90;;;;;;5095800;28;20352;-77
2021/11/14 10:05:23;;;;;;;;;;;6.80;99.90;;;;;;5095836;28;19939;-77
2021/11/14 10:07:54;;;;;;;;;;;6.90;99.90;;;;;;5095909;28;19924;-77
2021/11/14 10:10:20;;;;;;;;;;;6.90;99.90;;;;;;5095677;28;19924;-77
2021/11/14 10:12:47;;;;;;;;;;;6.90;99.90;;;;;;5095586;28;19924;-77
2021/11/14 10:15:14;;;;;;;;;;;6.90;99.90;;;;;;5095569;28;19924;-77
2021/11/14 10:17:46;;;;;;;;;;;6.90;99.90;;;;;;5095812;28;19924;-77
2021/11/14 10:20:13;;;;;;;;;;;7.00;99.90;;;;;;5095540;28;19932;-77
2021/11/14 10:22:42;;;;;;;;;;;7.00;99.90;;;;;;5095566;28;20050;-77
2021/11/14 10:25:09;;;;;;;;;;;7.00;99.90;;;;;;5095577;28;19934;-77
2021/11/14 10:27:36;;;;;;;;;;;7.10;99.90;;;;;;5095875;28;19924;-77
2021/11/14 10:30:02;;;;;;;;;;;7.10;99.90;;;;;;5095414;28;19924;-77
2021/11/14 10:32:29;;;;;;;;;;;7.10;99.90;;;;;;5095156;28;19932;-77
2021/11/14 10:34:59;;;;;;;;;;;7.10;99.90;;;;;;5095563;28;19935;-77
2021/11/14 10:37:26;;;;;;;;;;;7.20;99.90;;;;;;5095440;28;19924;-77
2021/11/14 10:39:54;;;;;;;;;;;7.30;99.90;;;;;;5094787;28;19924;-77
2021/11/14 10:42:21;;;;;;;;;;;7.30;99.90;;;;;;5095527;28;19924;-77
2021/11/14 10:44:48;;;;;;;;;;;7.30;99.90;;;;;;5095298;28;19924;-77
2021/11/14 10:47:20;;;;;;;;;;;7.30;99.90;;;;;;5095325;28;19924;-77
2021/11/14 10:49:51;;;;;;;;;;;7.30;99.90;;;;;;5095345;28;19924;-77
2021/11/14 10:52:18;;;;;;;;;;;7.40;99.90;;;;;;5095205;28;19924;-77
2021/11/14 10:54:45;;;;;;;;;;;7.40;99.90;;;;;;5095139;28;19924;-77
2021/11/14 10:57:13;;;;;;;;;;;7.40;99.90;;;;;;5095056;28;19924;-77
2021/11/14 10:59:47;;;;;;;;;;;7.50;99.90;;;;;;5095082;28;19924;-77
2021/11/14 11:02:14;;;;;;;;;;;7.60;99.90;;;;;;5095121;28;19928;-77
2021/11/14 11:04:41;;;;;;;;;;;7.70;99.90;;;;;;5094996;28;19924;-77
2021/11/14 11:07:07;;;;;;;;;;;7.90;99.90;;;;;;5095200;28;19931;-77
2021/11/14 11:09:36;;;;;;;;;;;8.10;99.90;;;;;;5095088;28;19931;-77
2021/11/14 11:12:03;;;;;;;;;;;8.20;99.90;;;;;;5095335;28;20307;-77
2021/11/14 11:14:32;;;;;;;;;;;8.40;99.90;;;;;;5095088;28;19934;-77
2021/11/14 11:16:59;;;;;;;;;;;8.40;99.90;;;;;;5095123;28;20035;-77
2021/11/14 11:19:26;;;;;;;;;;;8.50;99.90;;;;;;5095037;28;19924;-77
2021/11/14 11:21:53;;;;;;;;;;;8.50;99.90;;;;;;5095074;28;19924;-77
2021/11/14 11:24:20;;;;;;;;;;;8.60;99.90;;;;;;5095108;28;19934;-77
2021/11/14 11:26:54;;;;;;;;;;;8.60;99.90;;;;;;5095134;28;19924;-77
2021/11/14 11:29:21;;;;;;;;;;;8.70;99.90;;;;;;5095173;28;19950;-77
2021/11/14 11:31:49;;;;;;;;;;;8.80;99.90;;;;;;5094612;28;20252;-77
2021/11/14 11:34:16;;;;;;;;;;;8.90;99.90;;;;;;5094807;28;19935;-77
2021/11/14 11:36:43;;;;;;;;;;;9.00;99.90;;;;;;5094858;28;20380;-77
2021/11/14 11:39:10;;;;;;;;;;;9.10;99.90;;;;;;5094839;28;19950;-77
2021/11/14 11:41:39;;;;;;;;;;;9.20;99.90;;;;;;5094577;28;20254;-77
2021/11/14 11:44:06;;;;;;;;;;;9.20;99.90;;;;;;5094444;28;20034;-77
2021/11/14 11:46:34;;;;;;;;;;;9.30;99.90;;;;;;5094443;28;19935;-77
2021/11/14 11:49:03;;;;;;;;;;;9.30;99.90;;;;;;5094640;28;19935;-77
2021/11/14 11:51:31;;;;;;;;;;;9.40;99.90;;;;;;5095308;28;20402;-77
2021/11/14 11:53:58;;;;;;;;;;;9.40;99.90;;;;;;5098184;28;19935;-77
2021/11/14 11:56:33;;;;;;;;;;;9.40;99.90;;;;;;5098227;28;19928;-77
2021/11/14 11:59:00;;;;;;;;;;;9.50;99.90;;;;;;5098259;28;20275;-77
2021/11/14 12:01:27;;;;;;;;;;;9.50;99.90;;;;;;5098185;28;20362;-77
2021/11/14 12:03:54;;;;;;;;;;;9.50;99.90;;;;;;5097945;28;20255;-77
2021/11/14 12:06:23;;;;;;;;;;;9.50;99.90;;;;;;5098197;28;19934;-77
2021/11/14 12:08:50;;;;;;;;;;;9.50;99.90;;;;;;5098213;28;19931;-77
2021/11/14 12:11:27;;;;;;;;;;;9.50;99.90;;;;;;5097926;28;19924;-77
2021/11/14 12:13:53;;;;;;;;;;;9.60;99.90;;;;;;5097905;28;19924;-77
2021/11/14 12:16:29;;;;;;;;;;;9.60;99.90;;;;;;5097884;28;20337;-77
2021/11/14 12:18:56;;;;;;;;;;;9.60;99.90;;;;;;5097962;28;20327;-77
2021/11/14 12:21:24;;;;;;;;;;;9.60;99.90;;;;;;5097676;28;20345;-77
2021/11/14 12:23:55;;;;;;;;;;;9.60;99.90;;;;;;5097726;28;19924;-77
2021/11/14 12:26:26;;;;;;;;;;;9.70;99.90;;;;;;5097572;28;20405;-77
2021/11/14 12:28:54;;;;;;;;;;;9.70;99.90;;;;;;5097526;28;19925;-77
2021/11/14 12:31:24;;;;;;;;;;;9.70;99.90;;;;;;5097620;28;19986;-77
2021/11/14 12:33:53;;;;;;;;;;;9.70;99.90;;;;;;5097739;28;19928;-77
2021/11/14 12:36:20;;;;;;;;;;;9.80;99.90;;;;;;5097648;28;19935;-77
2021/11/14 12:38:48;;;;;;;;;;;9.80;99.90;;;;;;5097313;28;20317;-78
2021/11/14 12:41:16;;;;;;;;;;;9.80;99.90;;;;;;5097425;28;19932;-78
2021/11/14 12:43:45;;;;;;;;;;;9.90;99.90;;;;;;5097239;28;19924;-79
2021/11/14 12:46:12;;;;;;;;;;;9.90;99.90;;;;;;5097190;28;19924;-79
2021/11/14 12:48:40;;;;;;;;;;;10.00;99.90;;;;;;5097393;28;19924;-78
2021/11/14 12:51:07;;;;;;;;;;;10.00;99.90;;;;;;5097215;28;19924;-78
2021/11/14 12:53:44;;;;;;;;;;;10.00;99.90;;;;;;5097107;28;19935;-78
2021/11/14 12:56:13;;;;;;;;;;;10.00;99.90;;;;;;5097052;28;20359;-78
2021/11/14 12:58:40;;;;;;;;;;;10.00;99.90;;;;;;5097197;28;19949;-78
2021/11/14 13:01:07;;;;;;;;;;;10.00;99.90;;;;;;5096868;28;20241;-78
2021/11/14 13:03:35;;;;;;;;;;;10.00;99.90;;;;;;5096579;28;19930;-78
2021/11/14 13:06:02;;;;;;;;;;;10.00;99.90;;;;;;5096765;28;19934;-78
2021/11/14 13:08:30;;;;;;;;;;;10.00;99.90;;;;;;5096779;28;20378;-78
2021/11/14 13:10:57;;;;;;;;;;;10.00;99.90;;;;;;5096866;28;20382;-78
2021/11/14 13:13:32;;;;;;;;;;;10.00;99.90;;;;;;5096968;28;19942;-78
2021/11/14 13:15:59;;;;;;;;;;;10.00;99.90;;;;;;5096771;28;20002;-77
2021/11/14 13:18:26;;;;;;;;;;;10.00;99.90;;;;;;5096700;28;19946;-78
2021/11/14 13:20:55;;;;;;;;;;;10.00;99.90;;;;;;5096683;28;20337;-77
2021/11/14 13:23:22;;;;;;;;;;;10.00;99.90;;;;;;5096572;28;20391;-77
2021/11/14 13:25:49;;;;;;;;;;;10.00;99.90;;;;;;5096378;28;19923;-78
2021/11/14 13:28:16;;;;;;;;;;;10.00;99.90;;;;;;5096593;28;19927;-78
2021/11/14 13:30:44;;;;;;;;;;;10.00;99.90;;;;;;5096475;28;19938;-78
2021/11/14 13:33:14;;;;;;;;;;;10.00;99.90;;;;;;5096233;28;19932;-77
2021/11/14 13:35:41;;;;;;;;;;;10.00;99.90;;;;;;5096332;28;20272;-78
2021/11/14 13:38:08;;;;;;;;;;;10.00;99.90;;;;;;5096283;28;19924;-77
2021/11/14 13:40:35;;;;;;;;;;;10.00;99.90;;;;;;5096201;28;19928;-78
2021/11/14 13:43:02;;;;;;;;;;;10.00;99.90;;;;;;5096139;28;19930;-78
2021/11/14 13:45:29;;;;;;;;;;;10.00;99.90;;;;;;5096065;28;19931;-79
2021/11/14 13:47:59;;;;;;;;;;;10.10;99.90;;;;;;5096371;28;19924;-78
2021/11/14 13:50:28;;;;;;;;;;;10.10;99.90;;;;;;5096241;28;19924;-77
2021/11/14 13:52:55;;;;;;;;;;;10.10;99.90;;;;;;5096200;28;19928;-78
2021/11/14 13:55:22;;;;;;;;;;;10.20;99.90;;;;;;5095894;28;19932;-77
2021/11/14 13:57:49;;;;;;;;;;;10.20;99.90;;;;;;5095567;28;19924;-78
2021/11/14 14:00:18;;;;;;;;;;;10.20;99.90;;;;;;5095444;28;19924;-78
2021/11/14 14:02:44;;;;;;;;;;;10.30;99.90;;;;;;5095547;28;19931;-78
2021/11/14 14:05:13;;;;;;;;;;;10.30;99.90;;;;;;5092306;28;19938;-78
2021/11/14 14:07:41;;;;;;;;;;;10.30;99.90;;;;;;5093819;28;20364;-78
2021/11/14 14:10:08;;;;;;;;;;;10.30;99.90;;;;;;5095705;28;19923;-78
2021/11/14 14:12:37;;;;;;;;;;;10.30;99.90;;;;;;5095502;28;19935;-80
2021/11/14 14:15:06;;;;;;;;;;;10.30;99.90;;;;;;5094862;28;19990;-79
2021/11/14 14:17:33;;;;;;;;;;;10.40;99.90;;;;;;5095716;28;19924;-78
2021/11/14 14:20:00;;;;;;;;;;;10.40;99.90;;;;;;5095532;28;19924;-78
2021/11/14 14:22:38;;;;;;;;;;;10.40;99.90;;;;;;5095650;28;19924;-78
2021/11/14 14:25:05;;;;;;;;;;;10.40;99.90;;;;;;5095383;28;19928;-78
2021/11/14 14:27:32;;;;;;;;;;;10.40;99.90;;;;;;5095447;28;19924;-80
2021/11/14 14:29:59;;;;;;;;;;;10.50;99.90;;;;;;5095375;28;19934;-78